• Join FlightAware (Why Join?)
  • Login
  • US Flag 
01:26AM EST


 

Airport Tracker/Info


-or-


 

Live Flight TrackerFlight Track Log ✈ FDX1254 ✈ 14-Jun-2013 ✈ KFWA - KMEM

Flight Track Log - Related Links

Times and Time Zones

All times are in EDT time to prevent confusion due to time zone crossing. See the FDX1254 flight status page for this flight to view local times or setup timezone preferences in your user account.

Time Position Orientation Groundspeed Altitude Reporting Facility
EDT Latitude Longitude Course Direction KTS MPH feet Rate Location/Type
11:21PM 40.7410 -85.4990 224° Southwest 383 441 12,600  Level FlightAware
11:22PM 40.6730 -85.5640 216° Southwest 398 458 15,300 2,880 Climbing FlightAware
11:22PM 40.6170 -85.6180 216° Southwest 411 473 16,500 2,040 Climbing FlightAware
11:23PM 40.5420 -85.6890 216° Southwest 420 483 18,200 2,040 Climbing FlightAware
11:24PM 40.4750 -85.7520 216° Southwest 430 495 19,600 1,800 Climbing FlightAware
11:24PM 40.4150 -85.8080 215° Southwest 439 505 20,600 1,500 Climbing FlightAware
11:26PM 40.2840 -85.9320 216° Southwest 463 533 22,500 1,500 Climbing FlightAware
11:26PM 40.2130 -85.9980 215° Southwest 470 541 23,500 1,680 Climbing FlightAware
11:27PM 40.1420 -86.0640 215° Southwest 473 544 24,800 1,980 Climbing FlightAware
11:28PM 40.0600 -86.1400 215° Southwest 483 556 26,400 2,040 Climbing FlightAware
11:28PM 39.9860 -86.2080 215° Southwest 486 559 27,800 1,800 Climbing FlightAware
11:29PM 39.9080 -86.2810 216° Southwest 495 570 28,900 1,740 Climbing FlightAware
11:30PM 39.8320 -86.3500 215° Southwest 499 574 30,200 2,220 Climbing FlightAware
11:30PM 39.7520 -86.4150 212° Southwest 490 564 32,000 2,460 Climbing FlightAware
11:31PM 39.6660 -86.4790 210° Southwest 475 547 33,800 1,380 Climbing FlightAware
11:32PM 39.5890 -86.5380 211° Southwest 465 535 34,000 120 Climbing FlightAware
11:32PM 39.5140 -86.5950 210° Southwest 461 531 34,000  Level FlightAware
11:33PM 39.4330 -86.6560 210° Southwest 464 534 34,000  Level FlightAware
11:34PM 39.3490 -86.7190 210° Southwest 466 536 34,000  Level FlightAware
11:35PM 39.2750 -86.7750 210° Southwest 467 537 34,000  Level FlightAware
11:35PM 39.2270 -86.8100 209° Southwest 468 539 34,000  Level FlightAware
11:36PM 39.1190 -86.8920 211° Southwest 469 540 34,000  Level FlightAware
11:37PM 39.0410 -86.9490 210° Southwest 470 541 34,000  Level FlightAware
11:37PM 38.9760 -86.9980 210° Southwest 470 541 34,000  Level FlightAware
11:38PM 38.8850 -87.0650 210° Southwest 472 543 34,000  Level FlightAware
11:39PM 38.8070 -87.1230 210° Southwest 473 544 34,000  Level FlightAware
11:39PM 38.7200 -87.1860 209° Southwest 474 545 34,000  Level FlightAware
11:40PM 38.6410 -87.2450 210° Southwest 476 548 34,000  Level FlightAware
11:41PM 38.5640 -87.3010 210° Southwest 477 549 34,000  Level FlightAware
11:42PM 38.4780 -87.3640 210° Southwest 478 550 34,000  Level FlightAware
11:42PM 38.4020 -87.4190 210° Southwest 477 549 34,000  Level FlightAware
11:43PM 38.3220 -87.4770 210° Southwest 477 549 34,000  Level FlightAware
11:44PM 38.2370 -87.5390 210° Southwest 477 549 34,000  Level FlightAware
11:44PM 38.1590 -87.5960 210° Southwest 478 550 34,000  Level FlightAware
11:45PM 38.0730 -87.6570 209° Southwest 478 550 34,000  Level FlightAware
11:46PM 37.9960 -87.7130 210° Southwest 478 550 34,000  Level FlightAware
11:46PM 37.9230 -87.7740 213° Southwest 470 541 34,000  Level FlightAware
11:47PM 37.8580 -87.8630 227° Southwest 462 532 34,000  Level FlightAware
11:48PM 37.8000 -87.9470 229° Southwest 460 529 34,000  Level FlightAware
11:49PM 37.7400 -88.0340 229° Southwest 461 531 34,000  Level FlightAware
11:49PM 37.6830 -88.1180 229° Southwest 460 529 34,000  Level FlightAware
11:50PM 37.6310 -88.1920 228° Southwest 460 529 34,000  Level FlightAware
11:51PM 37.5600 -88.2930 228° Southwest 461 531 34,000  Level FlightAware
11:51PM 37.5030 -88.3740 228° Southwest 463 533 34,000  Level FlightAware
11:52PM 37.4440 -88.4570 228° Southwest 465 535 34,000  Level FlightAware
11:53PM 37.3910 -88.5340 229° Southwest 466 536 34,000  Level FlightAware
11:54PM 37.3250 -88.6270 228° Southwest 466 536 34,000  Level FlightAware
11:54PM 37.2810 -88.6890 228° Southwest 466 536 34,000  Level FlightAware
11:55PM 37.2340 -88.7540 228° Southwest 466 536 34,000  Level FlightAware
11:56PM 37.1800 -88.8290 228° Southwest 466 536 34,000  Level FlightAware
11:56PM 37.1200 -88.9130 228° Southwest 466 536 34,000  Level FlightAware
11:57PM 37.0760 -88.9740 228° Southwest 466 536 34,000  Level FlightAware
11:58PM 37.0170 -89.0560 228° Southwest 466 536 34,000  Level FlightAware
11:58PM 36.9720 -89.1190 228° Southwest 466 536 34,000  Level FlightAware
11:59PM 36.9130 -89.2010 228° Southwest 466 536 34,000  Level FlightAware
12:00AM 36.8690 -89.2620 228° Southwest 466 536 34,000  Level FlightAware
12:01AM 36.8110 -89.3420 228° Southwest 466 536 34,000  Level FlightAware
12:01AM 36.7670 -89.4040 228° Southwest 466 536 34,000  Level FlightAware
12:02AM 36.7080 -89.4850 228° Southwest 466 536 34,000  Level FlightAware
12:03AM 36.6640 -89.5460 228° Southwest 466 536 34,000 -11,580 Level FlightAware
12:03AM 36.4733 -89.6497 228° Southwest 432 497 23,400 -9,900 Descending Memphis Center
12:04AM 36.3547 -89.6767 190° South 432 497 21,000 -2,400 Descending Memphis Center
12:05AM 36.2422 -89.7033 191° South 432 497 18,700 -2,220 Descending Memphis Center
12:06AM 36.1300 -89.7275 190° South 427 491 16,600 -2,100 Descending Memphis Center
12:07AM 36.0217 -89.7539 191° South 413 475 14,500 -2,100 Descending Memphis Center
12:08AM 35.9153 -89.7753 189° South 400 460 12,500 -1,980 Descending Memphis Center
12:09AM 35.8175 -89.7964 190° South 385 443 10,600 -1,200 Descending Memphis Center
12:10AM 35.7258 -89.8175 191° South 364 419 10,100 -720 Descending Memphis Center
12:11AM 35.6508 -89.8358 191° South 315 362 9,200 -1,080 Descending Memphis Center
12:12AM 35.5736 -89.8183 170° South 282 325 8,000 -1,380 Descending Memphis Center
12:13AM 35.4942 -89.7858 162° South 282 325 6,500 -1,320 Descending Memphis Center
12:14AM 35.4169 -89.7558 162° South 288 331 5,400 -1,020 Descending Memphis Center
12:15AM 35.3458 -89.7258 161° South 283 326 4,500 -720 Descending Memphis Center
12:16AM 35.2850 -89.7008 161° South 274 315 4,000 -300 Descending Memphis Center
12:17AM 35.2139 -89.6708 161° South 264 304 4,000  Level Memphis Center
12:18AM 35.1450 -89.6436 162° South 264 304 4,000  Level Memphis Center
12:19AM 35.0844 -89.6339 173° South 238 274 4,000  Level Memphis Center
12:20AM 35.0533 -89.6747 227° Southwest 150 173 4,000 -120 Level Memphis Center
12:21AM 35.0536 -89.7356 270° West 167 192 3,800 -660 Descending Memphis Center
12:22AM 35.0542 -89.8014 271° West 186 214 2,700 -1,080 Descending Memphis Center
12:23AM 35.0564 -89.8675 272° West 197 227 1,700 -1,020 Descending Memphis Center
12:23AM 35.0500 -89.8833 244° Southwest 180 207 1,300 -780 Descending KMEM
12:24AM 35.0500 -89.9333 270° West 135 155 700 -720 Descending KMEM
12:26AM 35.0333 -89.9667 227° Southwest  Level FlightAware Approximate
12:33AM 35.0424 -89.9767 227° Southwest  Level Estimated
12:34AM 35.0424 -89.9767 227° Southwest  Level Estimated
12:35AM 35.0424 -89.9767 227° Southwest  Level Estimated
12:36AM 35.0424 -89.9767 227° Southwest  Level Estimated
12:37AM 35.0424 -89.9767 227° Southwest  Level Estimated
12:38AM 35.0424 -89.9767 227° Southwest  Level Estimated
12:39AM 35.0424 -89.9767 227° Southwest  Level Estimated